Time;durP1;ratioP1;P1;durP2;ratioP2;P2;SDS_P1;SDS_P2;PMS_P1;PMS_P2;Temp;Humidity;BMP_temperature;BMP_pressure;BME280_temperature;BME280_humidity;BME280_pressure;Samples;Min_cycle;Max_cycle;Signal;HPM_P1;HPM_P2
2022/06/05 00:01:39;;;;;;;10.30;8.07;;;12.30;99.90;;;;;;5105192;28;20494;-58
2022/06/05 00:04:47;;;;;;;8.05;7.25;;;12.30;99.90;;;;;;5103093;28;20012;-57
2022/06/05 00:07:38;;;;;;;11.10;8.30;;;12.30;99.90;;;;;;5104898;28;20057;-54
2022/06/05 00:10:13;;;;;;;9.60;8.23;;;12.20;99.90;;;;;;5086294;28;20027;-54
2022/06/05 00:12:42;;;;;;;11.13;8.27;;;12.20;99.90;;;;;;5104403;28;20023;-57
2022/06/05 00:15:09;;;;;;;10.63;7.80;;;12.20;99.90;;;;;;5104137;28;20035;-56
2022/06/05 00:17:35;;;;;;;10.25;7.35;;;12.20;99.90;;;;;;5106252;28;20065;-57
2022/06/05 00:20:00;;;;;;;9.95;7.85;;;12.20;99.90;;;;;;5103026;28;20016;-57
2022/06/05 00:22:26;;;;;;;10.50;7.95;;;12.10;99.90;;;;;;5107819;28;20016;-56
2022/06/05 00:24:51;;;;;;;10.23;7.78;;;12.00;99.90;;;;;;5083423;28;20028;-58
2022/06/05 00:27:23;;;;;;;9.48;7.80;;;11.90;99.90;;;;;;5097863;28;20024;-54
2022/06/05 00:29:55;;;;;;;10.32;8.45;;;11.90;99.90;;;;;;5102841;28;20082;-59
2022/06/05 00:32:41;;;;;;;10.35;8.27;;;11.80;99.90;;;;;;5104525;28;20077;-57
2022/06/05 00:35:09;;;;;;;9.43;8.07;;;11.80;99.90;;;;;;5102979;28;20098;-57
2022/06/05 00:38:02;;;;;;;9.60;8.00;;;11.80;99.90;;;;;;5104707;28;20024;-59
2022/06/05 00:40:28;;;;;;;11.27;8.98;;;11.70;99.90;;;;;;5086600;28;20428;-56
2022/06/05 00:42:54;;;;;;;10.23;8.52;;;11.70;99.90;;;;;;5103687;28;20031;-57
2022/06/05 00:45:20;;;;;;;13.23;9.50;;;11.70;99.90;;;;;;5086590;28;20027;-58
2022/06/05 00:47:46;;;;;;;12.38;9.82;;;11.60;99.90;;;;;;5078523;28;20042;-58
2022/06/05 00:50:27;;;;;;;14.15;9.70;;;11.60;99.90;;;;;;5100526;28;20051;-58
2022/06/05 00:52:56;;;;;;;12.32;9.48;;;11.50;99.90;;;;;;5102324;28;20028;-58
2022/06/05 00:55:24;;;;;;;12.45;9.68;;;11.50;99.90;;;;;;5101491;28;20038;-57
2022/06/05 00:57:52;;;;;;;12.15;9.65;;;11.40;99.90;;;;;;5099586;28;20020;-58
2022/06/05 01:00:24;;;;;;;10.15;8.60;;;11.40;99.90;;;;;;5103812;28;20031;-55
2022/06/05 01:02:53;;;;;;;13.60;10.13;;;11.40;99.90;;;;;;5091151;28;20029;-57
2022/06/05 01:05:21;;;;;;;12.75;9.55;;;11.40;99.90;;;;;;5106798;28;20038;-58
2022/06/05 01:07:47;;;;;;;11.88;10.48;;;11.40;99.90;;;;;;5097079;28;20074;-55
2022/06/05 01:10:14;;;;;;;12.95;9.25;;;11.40;99.90;;;;;;5108727;28;20019;-57
2022/06/05 01:12:52;;;;;;;12.90;10.15;;;11.40;99.90;;;;;;5102893;28;20020;-57
2022/06/05 01:15:34;;;;;;;13.20;9.80;;;11.30;99.90;;;;;;5088166;28;20016;-56
2022/06/05 01:18:21;;;;;;;13.30;9.75;;;11.20;99.90;;;;;;5100442;28;20024;-57
2022/06/05 01:21:08;;;;;;;13.88;10.63;;;11.30;99.90;;;;;;5096059;28;20016;-55
2022/06/05 01:23:49;;;;;;;14.00;10.70;;;11.20;99.90;;;;;;5098134;28;20024;-57
2022/06/05 01:26:26;;;;;;;13.27;10.15;;;11.20;99.90;;;;;;5102017;28;20022;-58
2022/06/05 01:29:12;;;;;;;12.05;9.63;;;11.20;99.90;;;;;;5085601;28;20072;-58
2022/06/05 01:31:58;;;;;;;11.57;8.75;;;11.20;99.90;;;;;;5095143;28;20093;-57
2022/06/05 01:34:42;;;;;;;13.27;10.68;;;11.10;99.90;;;;;;5095080;28;20589;-56
2022/06/05 01:37:16;;;;;;;13.07;10.05;;;11.10;99.90;;;;;;5103076;28;20362;-58
2022/06/05 01:39:51;;;;;;;11.43;9.77;;;11.00;99.90;;;;;;5103687;28;20023;-57
2022/06/05 01:42:27;;;;;;;11.50;9.57;;;11.00;99.90;;;;;;5090177;28;20044;-58
2022/06/05 01:44:59;;;;;;;13.32;10.30;;;11.00;99.90;;;;;;5101142;28;20482;-55
2022/06/05 01:47:33;;;;;;;13.85;10.82;;;11.00;99.90;;;;;;5104004;28;20024;-58
2022/06/05 01:50:24;;;;;;;12.63;10.25;;;11.00;99.90;;;;;;5101939;28;20038;-58
2022/06/05 01:52:56;;;;;;;13.05;10.48;;;11.00;99.90;;;;;;5101935;28;20503;-58
2022/06/05 01:55:50;;;;;;;12.88;10.80;;;11.00;99.90;;;;;;5094336;28;20020;-57
2022/06/05 01:58:19;;;;;;;14.55;10.68;;;11.00;99.90;;;;;;5094358;28;20110;-58
2022/06/05 02:00:56;;;;;;;12.75;10.20;;;10.90;99.90;;;;;;5100158;28;20022;-57
2022/06/05 02:03:37;;;;;;;15.55;11.30;;;10.90;99.90;;;;;;5093872;28;20024;-54
2022/06/05 02:06:13;;;;;;;12.45;10.55;;;10.90;99.90;;;;;;5102001;28;20122;-58
2022/06/05 02:08:54;;;;;;;14.82;11.48;;;10.90;99.90;;;;;;5104113;28;20046;-58
2022/06/05 02:11:25;;;;;;;15.60;11.60;;;10.80;99.90;;;;;;5090531;28;20031;-56
2022/06/05 02:13:56;;;;;;;17.58;12.02;;;10.80;99.90;;;;;;5081886;28;20034;-57
2022/06/05 02:16:22;;;;;;;17.02;11.30;;;10.80;99.90;;;;;;5103223;28;20116;-57
2022/06/05 02:18:48;;;;;;;12.18;10.55;;;10.80;99.90;;;;;;5083408;28;20046;-56
2022/06/05 02:21:14;;;;;;;16.05;11.70;;;10.70;99.90;;;;;;5090201;28;20596;-58
2022/06/05 02:23:40;;;;;;;15.65;10.93;;;10.70;99.90;;;;;;5102541;28;20065;-56
2022/06/05 02:26:08;;;;;;;12.68;10.93;;;10.70;99.90;;;;;;5102364;28;20016;-58
2022/06/05 02:28:35;;;;;;;13.52;10.65;;;10.70;99.90;;;;;;5102849;28;20024;-57
2022/06/05 02:31:04;;;;;;;14.65;10.70;;;10.60;99.90;;;;;;5100584;28;20095;-57
2022/06/05 02:33:41;;;;;;;16.08;11.80;;;10.60;99.90;;;;;;5102328;28;20534;-58
2022/06/05 02:36:27;;;;;;;15.15;11.43;;;10.70;99.90;;;;;;5101040;28;20024;-57
2022/06/05 02:39:16;;;;;;;14.25;10.95;;;10.60;99.90;;;;;;5101956;28;20015;-54
2022/06/05 02:41:48;;;;;;;13.98;11.65;;;10.60;99.90;;;;;;5101075;28;20027;-57
2022/06/05 02:44:40;;;;;;;16.13;11.07;;;10.60;99.90;;;;;;5098473;28;20032;-54
2022/06/05 02:47:44;;;;;;;15.43;11.38;;;10.60;99.90;;;;;;5101225;28;20084;-60
2022/06/05 02:50:24;;;;;;;15.23;11.05;;;10.50;99.90;;;;;;5100777;28;20032;-59
2022/06/05 02:52:51;;;;;;;14.52;11.35;;;10.50;99.90;;;;;;5099956;28;20046;-55
2022/06/05 02:55:21;;;;;;;16.48;11.35;;;10.50;99.90;;;;;;5095393;28;20020;-56
2022/06/05 02:57:47;;;;;;;14.77;12.40;;;10.50;99.90;;;;;;5104772;28;20030;-58
2022/06/05 03:00:22;;;;;;;13.95;11.13;;;10.50;99.90;;;;;;5098614;28;20394;-58
2022/06/05 03:05:34;;;;;;;16.17;12.27;;;10.50;99.90;;;;;;5096525;28;20070;-55
2022/06/05 03:08:00;;;;;;;15.35;12.38;;;10.50;99.90;;;;;;5106098;28;20019;-57
2022/06/05 03:10:26;;;;;;;16.25;12.05;;;10.50;99.90;;;;;;5098521;28;20104;-59
2022/06/05 03:12:52;;;;;;;13.43;11.95;;;10.50;99.90;;;;;;5097749;28;20032;-58
2022/06/05 03:15:18;;;;;;;14.52;11.65;;;10.50;99.90;;;;;;5103814;28;20028;-58
2022/06/05 03:17:44;;;;;;;18.77;11.68;;;10.50;99.90;;;;;;5098518;28;20023;-56
2022/06/05 03:20:12;;;;;;;14.88;11.90;;;10.50;99.90;;;;;;5104739;28;20097;-59
2022/06/05 03:22:38;;;;;;;13.38;10.05;;;10.40;99.90;;;;;;5097249;28;20479;-58
2022/06/05 03:27:41;;;;;;;15.07;11.05;;;10.50;99.90;;;;;;5103652;28;20104;-50
2022/06/05 03:30:08;;;;;;;15.13;11.73;;;10.50;99.90;;;;;;5091446;28;20023;-54
2022/06/05 03:32:33;;;;;;;13.45;10.93;;;10.40;99.90;;;;;;5087291;28;20024;-50
2022/06/05 03:34:59;;;;;;;14.90;11.00;;;10.40;99.90;;;;;;5108639;28;20378;-50
2022/06/05 03:37:25;;;;;;;13.68;10.93;;;10.40;99.90;;;;;;5103248;28;20020;-50
2022/06/05 03:39:50;;;;;;;15.70;12.07;;;10.40;99.90;;;;;;5079961;28;20079;-50
2022/06/05 03:42:16;;;;;;;14.13;11.70;;;10.40;99.90;;;;;;5105453;28;20845;-49
2022/06/05 03:44:42;;;;;;;14.07;11.13;;;10.40;99.90;;;;;;5097689;28;20024;-50
2022/06/05 03:47:10;;;;;;;13.95;12.45;;;10.40;99.90;;;;;;5100574;28;20039;-49
2022/06/05 03:49:36;;;;;;;12.43;10.93;;;10.40;99.90;;;;;;5082817;28;20032;-53
2022/06/05 03:52:04;;;;;;;15.85;12.10;;;10.40;99.90;;;;;;5081205;28;20020;-52
2022/06/05 03:54:29;;;;;;;16.08;10.73;;;10.40;99.90;;;;;;5079196;28;20028;-52
2022/06/05 03:56:55;;;;;;;13.80;10.30;;;10.40;99.90;;;;;;5099153;28;20019;-51
2022/06/05 03:59:21;;;;;;;14.52;10.63;;;10.40;99.90;;;;;;5101399;28;20015;-49
2022/06/05 04:01:46;;;;;;;14.70;11.98;;;10.40;99.90;;;;;;5081770;28;20396;-51
2022/06/05 04:04:12;;;;;;;13.35;11.45;;;10.40;99.90;;;;;;5082638;28;20023;-50
2022/06/05 04:06:37;;;;;;;17.08;12.73;;;10.40;99.90;;;;;;5101213;28;20020;-50
2022/06/05 04:09:06;;;;;;;12.35;10.77;;;10.40;99.90;;;;;;5082195;28;20055;-49
2022/06/05 04:11:34;;;;;;;13.15;11.30;;;10.40;99.90;;;;;;5100923;28;20016;-52
2022/06/05 04:14:00;;;;;;;15.90;10.88;;;10.40;99.90;;;;;;5098413;28;20028;-48
2022/06/05 04:16:28;;;;;;;13.43;10.52;;;10.40;99.90;;;;;;5101128;28;20019;-49
2022/06/05 04:18:54;;;;;;;14.05;12.13;;;10.40;99.90;;;;;;5099489;28;20028;-49
2022/06/05 04:21:23;;;;;;;16.30;12.02;;;10.40;99.90;;;;;;5100309;28;20019;-49
2022/06/05 04:23:50;;;;;;;15.20;10.65;;;10.40;99.90;;;;;;5100262;28;20386;-52
2022/06/05 04:26:19;;;;;;;11.95;10.48;;;10.40;99.90;;;;;;5101039;28;20024;-49
2022/06/05 04:28:44;;;;;;;14.80;10.98;;;10.40;99.90;;;;;;5101145;28;20027;-49
2022/06/05 04:31:24;;;;;;;13.10;10.25;;;10.50;99.90;;;;;;5098581;28;20016;-51
2022/06/05 04:33:51;;;;;;;14.63;11.35;;;10.50;99.90;;;;;;5084263;28;20073;-49
2022/06/05 04:36:17;;;;;;;12.98;10.82;;;10.50;99.90;;;;;;5085091;28;20027;-48
2022/06/05 04:38:43;;;;;;;17.20;11.07;;;10.50;99.90;;;;;;5104460;28;20024;-49
2022/06/05 04:41:09;;;;;;;14.30;11.75;;;10.50;99.90;;;;;;5103697;28;20114;-52
2022/06/05 04:43:36;;;;;;;15.85;11.45;;;10.60;99.90;;;;;;5104352;28;20122;-48
2022/06/05 04:46:02;;;;;;;15.43;11.85;;;10.60;99.90;;;;;;5084005;28;20031;-49
2022/06/05 04:48:28;;;;;;;13.30;10.98;;;10.60;99.90;;;;;;5104224;28;20024;-50
2022/06/05 04:50:53;;;;;;;14.02;10.88;;;10.70;99.90;;;;;;5103729;28;20020;-51
2022/06/05 04:53:19;;;;;;;13.82;10.70;;;10.70;99.90;;;;;;5100232;28;20110;-50
2022/06/05 04:55:45;;;;;;;15.45;11.70;;;10.80;99.90;;;;;;5096822;28;20023;-48
2022/06/05 04:58:10;;;;;;;14.10;10.95;;;10.80;99.90;;;;;;5106920;28;20489;-49
2022/06/05 05:00:36;;;;;;;15.15;10.70;;;10.90;99.90;;;;;;5100661;28;20024;-52
2022/06/05 05:03:01;;;;;;;14.35;11.57;;;10.90;99.90;;;;;;5107485;28;20728;-50
2022/06/05 05:05:27;;;;;;;13.82;11.07;;;11.00;99.90;;;;;;5100864;28;20065;-48
2022/06/05 05:07:52;;;;;;;15.18;11.75;;;11.00;99.90;;;;;;5108896;28;20069;-49
2022/06/05 05:10:18;;;;;;;13.48;10.90;;;11.10;99.90;;;;;;5100532;28;20478;-47
2022/06/05 05:12:44;;;;;;;16.27;11.45;;;11.20;99.90;;;;;;5100100;28;20016;-51
2022/06/05 05:15:10;;;;;;;12.13;10.38;;;11.20;99.90;;;;;;5106338;28;20039;-52
2022/06/05 05:17:36;;;;;;;13.07;10.32;;;11.30;99.90;;;;;;5100418;28;20024;-50
2022/06/05 05:20:03;;;;;;;13.63;11.32;;;11.40;99.90;;;;;;5107238;28;20024;-50
2022/06/05 05:22:29;;;;;;;14.00;10.95;;;11.50;99.90;;;;;;5100162;28;20085;-49
2022/06/05 05:24:54;;;;;;;13.25;11.88;;;11.50;99.90;;;;;;5108033;28;20031;-49
2022/06/05 05:27:20;;;;;;;13.85;10.98;;;11.60;99.90;;;;;;5081800;28;20038;-49
2022/06/05 05:29:46;;;;;;;16.15;12.93;;;11.70;99.90;;;;;;5100042;28;20027;-51
2022/06/05 05:32:12;;;;;;;18.40;12.27;;;11.90;99.90;;;;;;5106078;28;20024;-53
2022/06/05 05:34:38;;;;;;;15.18;10.90;;;12.00;99.90;;;;;;5081631;28;20085;-51
2022/06/05 05:37:04;;;;;;;15.00;11.73;;;12.10;99.90;;;;;;5107066;28;20115;-49
2022/06/05 05:42:15;;;;;;;15.90;11.68;;;12.60;99.90;;;;;;5092877;28;20031;-48
2022/06/05 05:44:47;;;;;;;12.63;10.40;;;12.90;99.90;;;;;;5081432;28;20023;-47
2022/06/05 05:47:21;;;;;;;11.80;10.38;;;13.10;99.90;;;;;;5103436;28;20032;-49
2022/06/05 05:49:51;;;;;;;12.02;10.75;;;13.40;99.90;;;;;;5101220;28;20040;-49
2022/06/05 05:52:17;;;;;;;12.45;9.55;;;13.60;99.90;;;;;;5088236;28;20023;-48
2022/06/05 05:54:42;;;;;;;11.48;10.27;;;13.80;99.90;;;;;;5098961;28;20115;-49
2022/06/05 05:57:08;;;;;;;10.43;9.38;;;14.00;99.90;;;;;;5082534;28;20120;-50
2022/06/05 05:59:34;;;;;;;10.88;9.55;;;14.30;99.90;;;;;;5103317;28;20015;-50
2022/06/05 06:02:00;;;;;;;12.73;8.85;;;14.50;99.90;;;;;;5101438;28;20390;-49
2022/06/05 06:04:26;;;;;;;9.73;8.70;;;14.70;99.90;;;;;;5102883;28;20027;-50
2022/06/05 06:06:53;;;;;;;8.68;7.78;;;14.90;99.90;;;;;;5083957;28;20030;-47
2022/06/05 06:09:19;;;;;;;9.30;8.32;;;15.10;99.90;;;;;;5084848;28;20453;-50
2022/06/05 06:11:46;;;;;;;9.40;8.48;;;15.30;99.90;;;;;;5102885;28;20050;-50
2022/06/05 06:14:12;;;;;;;8.60;7.75;;;15.50;99.90;;;;;;5100504;28;20035;-49
2022/06/05 06:16:37;;;;;;;8.60;7.68;;;15.70;99.90;;;;;;5103128;28;20028;-50
2022/06/05 06:19:04;;;;;;;9.13;8.23;;;15.90;99.90;;;;;;5101585;28;20120;-52
2022/06/05 06:21:30;;;;;;;8.45;7.53;;;16.00;99.90;;;;;;5084554;28;20019;-49
2022/06/05 06:23:56;;;;;;;9.30;7.05;;;16.10;99.90;;;;;;5102124;28;20020;-50
2022/06/05 06:26:22;;;;;;;8.77;7.65;;;16.30;99.90;;;;;;5102375;28;20039;-53
2022/06/05 06:28:47;;;;;;;7.65;6.80;;;16.50;99.90;;;;;;5102740;28;20027;-52
2022/06/05 06:31:16;;;;;;;8.73;7.15;;;16.60;99.90;;;;;;5081678;28;20061;-50
2022/06/05 06:33:42;;;;;;;6.68;6.07;;;16.80;99.90;;;;;;5102353;28;20509;-49
2022/06/05 06:36:10;;;;;;;5.90;5.30;;;16.90;99.90;;;;;;5082610;28;20463;-51
2022/06/05 06:38:36;;;;;;;6.13;5.50;;;17.10;99.90;;;;;;5102800;28;20131;-49
2022/06/05 06:41:14;;;;;;;5.63;5.13;;;17.30;99.90;;;;;;5101848;28;20072;-49
2022/06/05 06:43:41;;;;;;;5.35;4.65;;;17.50;99.90;;;;;;5084267;28;20019;-49
2022/06/05 06:46:07;;;;;;;5.03;4.38;;;17.70;99.90;;;;;;5099736;28;20055;-49
2022/06/05 06:48:34;;;;;;;4.90;4.50;;;17.90;99.90;;;;;;5084753;28;20099;-50
2022/06/05 06:51:01;;;;;;;5.93;4.25;;;18.00;99.90;;;;;;5100843;28;20535;-50
2022/06/05 06:53:28;;;;;;;4.72;4.18;;;18.20;99.90;;;;;;5097731;28;20603;-51
2022/06/05 06:55:54;;;;;;;4.35;3.97;;;18.40;99.90;;;;;;5077971;28;20024;-50
2022/06/05 06:58:20;;;;;;;5.47;4.38;;;18.50;99.90;;;;;;5104321;28;20020;-50
2022/06/05 07:00:46;;;;;;;4.00;3.70;;;18.60;99.90;;;;;;5080654;28;20474;-53
2022/06/05 07:03:11;;;;;;;4.40;4.00;;;18.90;99.90;;;;;;5105194;28;20478;-49
2022/06/05 07:05:39;;;;;;;4.45;4.05;;;19.10;99.90;;;;;;5098783;28;20032;-51
2022/06/05 07:08:07;;;;;;;4.63;4.10;;;19.30;99.90;;;;;;5106758;28;20027;-52
2022/06/05 07:10:32;;;;;;;4.13;3.63;;;19.40;99.90;;;;;;5098557;28;20135;-54
2022/06/05 07:12:58;;;;;;;3.75;3.38;;;19.70;99.90;;;;;;5099228;28;20149;-49
2022/06/05 07:15:24;;;;;;;3.35;3.05;;;19.80;99.90;;;;;;5084490;28;20016;-51
2022/06/05 07:17:49;;;;;;;4.05;3.30;;;20.00;99.90;;;;;;5098502;28;20640;-50
2022/06/05 07:20:15;;;;;;;5.05;3.88;;;20.20;99.90;;;;;;5066684;28;20027;-50
2022/06/05 07:22:41;;;;;;;3.83;3.53;;;20.40;99.90;;;;;;5078855;28;20073;-51
2022/06/05 07:25:07;;;;;;;3.90;3.50;;;20.50;99.90;;;;;;5087738;28;20032;-50
2022/06/05 07:27:33;;;;;;;4.25;3.92;;;20.80;99.90;;;;;;5097966;28;20111;-53
2022/06/05 07:29:59;;;;;;;4.05;3.65;;;20.90;99.90;;;;;;5099580;28;20031;-50
2022/06/05 07:32:25;;;;;;;4.00;3.60;;;21.00;99.90;;;;;;5102674;28;20363;-50
2022/06/05 07:34:50;;;;;;;3.50;3.05;;;21.20;99.90;;;;;;5080518;28;20012;-52
2022/06/05 07:37:16;;;;;;;3.40;3.10;;;21.20;99.20;;;;;;5104339;28;20028;-51
2022/06/05 07:39:43;;;;;;;3.83;3.53;;;21.30;98.30;;;;;;5063337;28;20389;-49
2022/06/05 07:42:10;;;;;;;3.95;2.92;;;21.50;98.50;;;;;;5105653;28;20064;-50
2022/06/05 07:44:36;;;;;;;5.15;3.47;;;21.50;98.10;;;;;;5097694;28;20702;-52
2022/06/05 07:47:08;;;;;;;3.70;3.35;;;21.60;97.40;;;;;;5081839;28;20480;-49
2022/06/05 07:49:38;;;;;;;3.20;2.90;;;21.60;96.80;;;;;;5101421;28;20482;-51
2022/06/05 07:54:48;;;;;;;4.90;3.38;;;22.00;96.70;;;;;;5097458;28;20034;-51
2022/06/05 07:57:15;;;;;;;3.80;3.35;;;22.20;93.30;;;;;;5098884;28;20032;-51
2022/06/05 07:59:43;;;;;;;3.00;2.70;;;22.30;93.60;;;;;;5101179;28;20111;-50
2022/06/05 08:02:13;;;;;;;4.55;2.65;;;22.30;92.70;;;;;;5079884;28;20027;-53
2022/06/05 08:04:40;;;;;;;4.55;2.70;;;22.40;92.50;;;;;;5082855;28;20024;-49
2022/06/05 08:07:08;;;;;;;4.53;2.75;;;22.50;92.10;;;;;;5101370;28;20054;-50
2022/06/05 08:09:35;;;;;;;3.00;2.78;;;22.60;92.20;;;;;;5105458;28;20050;-48
2022/06/05 08:12:01;;;;;;;3.08;2.80;;;22.70;91.90;;;;;;5085323;28;20020;-49
2022/06/05 08:14:30;;;;;;;3.20;2.30;;;22.90;92.60;;;;;;5104779;28;20062;-50
2022/06/05 08:16:56;;;;;;;3.70;2.50;;;23.00;91.30;;;;;;5104510;28;20103;-49
2022/06/05 08:19:23;;;;;;;2.40;2.20;;;23.10;88.90;;;;;;5105252;28;20019;-50
2022/06/05 08:21:51;;;;;;;2.47;2.20;;;23.10;86.70;;;;;;5104961;28;20030;-51
2022/06/05 08:24:17;;;;;;;2.90;2.70;;;23.20;89.10;;;;;;5103401;28;20023;-51
2022/06/05 08:26:43;;;;;;;2.78;2.58;;;23.50;88.40;;;;;;5086624;28;20028;-50
2022/06/05 08:29:08;;;;;;;2.45;2.25;;;23.70;88.30;;;;;;5102221;28;20650;-51
2022/06/05 08:31:34;;;;;;;2.72;2.53;;;23.80;84.80;;;;;;5087008;28;20015;-49
2022/06/05 08:34:01;;;;;;;3.75;3.20;;;24.00;88.00;;;;;;5103159;28;20024;-50
2022/06/05 08:36:28;;;;;;;3.35;3.05;;;24.10;85.40;;;;;;5086567;28;20392;-50
2022/06/05 08:41:59;;;;;;;2.80;2.60;;;24.10;85.10;;;;;;5102827;28;20438;-50
2022/06/05 08:44:38;;;;;;;3.13;2.90;;;24.10;86.20;;;;;;5097138;28;20622;-48
2022/06/05 08:47:29;;;;;;;3.63;3.33;;;24.20;86.30;;;;;;5103285;28;20056;-49
2022/06/05 08:50:12;;;;;;;3.15;2.85;;;24.20;85.40;;;;;;5102801;28;20027;-50
2022/06/05 08:52:43;;;;;;;3.50;3.20;;;24.20;84.80;;;;;;5104227;28;20378;-53
2022/06/05 08:55:24;;;;;;;3.03;2.78;;;24.40;87.00;;;;;;5097315;28;20027;-52
2022/06/05 08:57:56;;;;;;;2.78;2.45;;;24.50;83.50;;;;;;5107304;28;20481;-48
2022/06/05 09:00:31;;;;;;;2.80;2.60;;;24.40;79.90;;;;;;5100908;28;20147;-49
2022/06/05 09:03:04;;;;;;;4.75;2.88;;;24.50;80.90;;;;;;5107511;28;20512;-54
2022/06/05 09:05:40;;;;;;;3.10;2.90;;;24.60;81.60;;;;;;5100595;28;20428;-50
2022/06/05 09:08:26;;;;;;;3.38;3.08;;;24.70;83.40;;;;;;5108851;28;20019;-51
2022/06/05 09:11:01;;;;;;;2.72;2.53;;;24.70;80.20;;;;;;5101037;28;20055;-54
2022/06/05 09:13:36;;;;;;;4.07;3.10;;;24.50;80.80;;;;;;5085476;28;20657;-50
2022/06/05 09:16:11;;;;;;;3.08;2.80;;;24.40;79.40;;;;;;5100836;28;20020;-54
2022/06/05 09:18:42;;;;;;;3.30;3.00;;;24.40;79.40;;;;;;5103751;28;20019;-51
2022/06/05 09:21:29;;;;;;;3.03;2.83;;;24.40;78.90;;;;;;5102160;28;20043;-51
2022/06/05 09:24:07;;;;;;;4.82;3.00;;;24.30;79.40;;;;;;5103796;28;20020;-53
2022/06/05 09:26:47;;;;;;;3.83;3.40;;;24.10;77.70;;;;;;5161078;22;20059;-46
2022/06/05 09:29:36;;;;;;;3.08;2.78;;;24.00;78.20;;;;;;5111899;28;20019;-51
2022/06/05 09:32:23;;;;;;;3.17;2.88;;;24.10;80.90;;;;;;5109819;28;20097;-49
2022/06/05 09:35:26;;;;;;;3.15;2.85;;;24.20;81.90;;;;;;5107241;28;20019;-51
2022/06/05 09:38:05;;;;;;;3.50;3.25;;;24.20;80.90;;;;;;5093655;28;20060;-50
2022/06/05 09:40:35;;;;;;;3.55;3.25;;;24.10;81.30;;;;;;5083512;28;20024;-49
2022/06/05 09:43:29;;;;;;;3.30;3.10;;;24.20;81.40;;;;;;5089062;28;20062;-49
2022/06/05 09:46:19;;;;;;;3.53;3.10;;;24.20;82.40;;;;;;5093985;28;20020;-50
2022/06/05 09:48:56;;;;;;;3.97;3.67;;;24.00;80.40;;;;;;5097954;28;20016;-52
2022/06/05 09:51:22;;;;;;;3.13;2.92;;;23.90;81.50;;;;;;5095450;28;20023;-48
2022/06/05 09:54:02;;;;;;;3.97;3.38;;;23.70;82.00;;;;;;5095966;28;20061;-48
2022/06/05 09:58:24;;;;;;;4.20;3.05;;;23.90;84.20;;;;;;5093159;28;20374;-48
2022/06/05 09:59:29;;;;;;;4.65;3.00;;;24.00;81.00;;;;;;5091462;28;20482;-48
2022/06/05 10:01:58;;;;;;;3.28;2.80;;;24.00;81.30;;;;;;5098752;28;20024;-50
2022/06/05 10:04:29;;;;;;;3.60;3.00;;;23.80;81.40;;;;;;5090924;28;20474;-49
2022/06/05 10:07:06;;;;;;;3.63;2.70;;;23.80;83.10;;;;;;5095999;28;20016;-47
2022/06/05 10:09:34;;;;;;;2.35;2.15;;;23.90;82.90;;;;;;5089037;28;20115;-48
2022/06/05 10:12:07;;;;;;;2.70;2.50;;;23.80;82.20;;;;;;5094190;28;20032;-49
2022/06/05 10:14:45;;;;;;;2.90;2.65;;;23.90;82.00;;;;;;5080771;28;20012;-50
2022/06/05 10:17:13;;;;;;;2.72;2.50;;;23.70;80.20;;;;;;5092750;28;20021;-46
2022/06/05 10:19:58;;;;;;;3.38;2.50;;;23.70;81.00;;;;;;5097396;28;20400;-47
2022/06/05 10:22:26;;;;;;;3.63;2.47;;;23.60;80.60;;;;;;5092117;28;20040;-46
2022/06/05 10:25:14;;;;;;;2.50;2.30;;;23.60;81.10;;;;;;5093616;28;20098;-48
2022/06/05 10:28:00;;;;;;;2.28;2.08;;;23.70;82.50;;;;;;5093214;28;20034;-50
2022/06/05 10:30:30;;;;;;;;;;;23.80;81.70;;;;;;5078909;28;20059;-46
2022/06/05 10:33:18;;;;;;;2.58;2.38;;;23.80;80.50;;;;;;5074584;28;19908;-46
2022/06/05 10:36:07;;;;;;;2.63;2.42;;;23.70;81.70;;;;;;5056521;28;20040;-48
2022/06/05 10:38:48;;;;;;;2.40;2.30;;;23.80;80.90;;;;;;5088968;28;20489;-45
2022/06/05 10:41:35;;;;;;;2.58;2.38;;;24.00;81.00;;;;;;5095459;28;20446;-46
2022/06/05 10:44:16;;;;;;;5.68;2.28;;;24.10;80.50;;;;;;5086191;28;20024;-47
2022/06/05 10:47:04;;;;;;;3.60;2.38;;;24.20;79.60;;;;;;5092820;28;20023;-46
2022/06/05 10:49:55;;;;;;;3.10;2.10;;;24.20;78.50;;;;;;5078595;28;20041;-52
2022/06/05 10:52:41;;;;;;;2.80;2.25;;;24.20;79.00;;;;;;5089752;28;20074;-48
2022/06/05 10:55:55;;;;;;;2.70;2.50;;;24.30;79.60;;;;;;5091412;28;20032;-49
2022/06/05 10:58:46;;;;;;;2.50;2.30;;;24.20;78.50;;;;;;5084443;28;20051;-48
2022/06/05 11:01:12;;;;;;;2.55;2.35;;;24.20;79.60;;;;;;5096430;28;20047;-49
2022/06/05 11:04:02;;;;;;;3.40;2.10;;;24.20;78.50;;;;;;5089292;28;20047;-49
2022/06/05 11:06:52;;;;;;;2.30;2.10;;;24.20;76.50;;;;;;5062331;28;20069;-47
2022/06/05 11:09:57;;;;;;;2.35;1.95;;;24.20;77.50;;;;;;5082373;28;20107;-50
2022/06/05 11:15:39;;;;;;;3.30;2.20;;;24.00;77.00;;;;;;5084974;28;20027;-46
2022/06/05 11:18:20;;;;;;;2.20;2.03;;;23.90;75.00;;;;;;5097567;28;20027;-48
2022/06/05 11:20:57;;;;;;;2.47;2.13;;;23.80;77.00;;;;;;5089873;28;20095;-47
2022/06/05 11:23:27;;;;;;;1.90;1.80;;;23.80;76.10;;;;;;5088949;28;20416;-47
2022/06/05 11:26:33;;;;;;;2.13;2.03;;;23.90;76.30;;;;;;5087968;28;20550;-51
2022/06/05 11:29:25;;;;;;;2.58;2.38;;;23.80;77.40;;;;;;5093362;28;20126;-53
2022/06/05 11:32:10;;;;;;;2.97;2.20;;;23.90;77.40;;;;;;5070532;28;20047;-50
2022/06/05 11:34:41;;;;;;;2.38;2.13;;;23.90;74.80;;;;;;5097500;28;20043;-52
2022/06/05 11:37:41;;;;;;;1.95;1.85;;;24.00;75.40;;;;;;5089157;28;20062;-50
2022/06/05 11:40:45;;;;;;;2.10;1.90;;;24.10;78.50;;;;;;5092837;28;20031;-49
2022/06/05 11:43:39;;;;;;;2.85;2.17;;;24.20;77.10;;;;;;5086079;28;20027;-50
2022/06/05 11:46:11;;;;;;;2.03;1.77;;;24.20;73.00;;;;;;5093400;28;20020;-51
2022/06/05 11:48:57;;;;;;;2.38;1.77;;;24.20;73.50;;;;;;5096943;28;20020;-46
2022/06/05 11:51:30;;;;;;;;;;;24.20;73.90;;;;;;5094170;28;20023;-48
2022/06/05 11:54:07;;;;;;;2.22;1.60;;;24.20;73.10;;;;;;5093301;28;19975;-48
2022/06/05 11:56:53;;;;;;;1.98;1.48;;;24.30;74.40;;;;;;5097414;28;20020;-56
2022/06/05 11:59:39;;;;;;;2.45;1.85;;;24.30;70.70;;;;;;5086989;28;20492;-46
2022/06/05 12:02:08;;;;;;;2.17;1.73;;;24.40;72.30;;;;;;5096798;28;20032;-48
2022/06/05 12:04:56;;;;;;;1.95;1.33;;;24.50;70.60;;;;;;5088802;28;20482;-46
2022/06/05 12:07:25;;;;;;;1.42;1.33;;;24.50;68.60;;;;;;5095536;28;20106;-46
2022/06/05 12:09:55;;;;;;;1.65;1.55;;;24.50;71.90;;;;;;5086748;28;20141;-46
2022/06/05 12:12:26;;;;;;;1.00;0.95;;;24.50;69.30;;;;;;5096790;28;20023;-47
2022/06/05 12:14:56;;;;;;;2.83;2.55;;;24.40;68.30;;;;;;5094115;28;20473;-48
2022/06/05 12:17:38;;;;;;;2.13;1.65;;;24.30;67.90;;;;;;5093613;28;20024;-47
2022/06/05 12:20:16;;;;;;;1.30;1.20;;;24.30;68.20;;;;;;5090016;28;20026;-46
2022/06/05 12:23:10;;;;;;;1.55;1.45;;;24.30;69.00;;;;;;5095701;28;20027;-47
2022/06/05 12:25:53;;;;;;;1.38;1.27;;;24.40;68.50;;;;;;5078486;28;20035;-53
2022/06/05 12:28:21;;;;;;;1.13;1.00;;;24.40;66.40;;;;;;5084682;28;20493;-48
2022/06/05 12:31:11;;;;;;;1.23;1.13;;;24.50;67.60;;;;;;5097818;28;20024;-47
2022/06/05 12:33:57;;;;;;;1.55;1.10;;;24.60;69.40;;;;;;5088727;28;20103;-45
2022/06/05 12:36:41;;;;;;;;;;;24.70;64.10;;;;;;5097352;28;20466;-48
2022/06/05 12:39:22;;;;;;;1.38;1.17;;;24.70;64.30;;;;;;5086670;28;20285;-48
2022/06/05 12:41:51;;;;;;;2.63;1.08;;;24.90;64.30;;;;;;5092983;28;20024;-46
2022/06/05 12:44:26;;;;;;;1.45;0.95;;;25.00;65.90;;;;;;5084826;28;20133;-47
2022/06/05 12:47:34;;;;;;;1.30;1.20;;;25.00;66.40;;;;;;5099840;28;20038;-46
2022/06/05 12:50:32;;;;;;;1.40;0.90;;;25.00;60.80;;;;;;5087928;28;20110;-47
2022/06/05 12:53:14;;;;;;;1.35;1.20;;;24.90;61.30;;;;;;5095448;28;20634;-47
2022/06/05 12:55:54;;;;;;;1.45;1.35;;;24.90;61.40;;;;;;5076090;28;20022;-46
2022/06/05 12:58:47;;;;;;;6.25;5.35;;;24.90;61.60;;;;;;5086437;28;20044;-49
2022/06/05 13:01:37;;;;;;;5.22;4.70;;;25.00;60.50;;;;;;5098500;28;20019;-48
2022/06/05 13:04:03;;;;;;;1.45;1.35;;;25.20;61.50;;;;;;5093164;28;20015;-48
2022/06/05 13:06:51;;;;;;;18.15;16.00;;;25.30;63.30;;;;;;5099387;28;20508;-47
2022/06/05 13:09:20;;;;;;;10.20;8.45;;;25.30;61.30;;;;;;5087766;28;20082;-48
2022/06/05 13:12:29;;;;;;;2.22;2.03;;;25.30;58.70;;;;;;5094631;28;20511;-51
2022/06/05 13:15:16;;;;;;;1.20;1.10;;;25.30;57.80;;;;;;5090414;28;20040;-50
2022/06/05 13:17:54;;;;;;;1.35;1.10;;;25.30;58.00;;;;;;5092211;28;20027;-46
2022/06/05 13:20:38;;;;;;;1.20;1.10;;;25.30;57.50;;;;;;5087564;28;20020;-45
2022/06/05 13:23:28;;;;;;;1.60;1.00;;;25.40;57.70;;;;;;5092007;28;20047;-46
2022/06/05 13:26:03;;;;;;;1.10;1.00;;;25.50;56.00;;;;;;5087681;28;20089;-46
2022/06/05 13:28:50;;;;;;;1.23;1.00;;;25.60;57.40;;;;;;5084478;28;20323;-48
2022/06/05 13:31:26;;;;;;;1.23;0.82;;;25.70;56.50;;;;;;5079507;28;20031;-49